Time;durP1;ratioP1;P1;durP2;ratioP2;P2;SDS_P1;SDS_P2;PMS_P1;PMS_P2;Temp;Humidity;BMP_temperature;BMP_pressure;BME280_temperature;BME280_humidity;BME280_pressure;Samples;Min_cycle;Max_cycle;Signal;HPM_P1;HPM_P2
2022/08/25 00:06:19;;;;;;;;;;;;;;;18.59;88.47;99799.84;431865;1271;145945;-62
2022/08/25 00:16:25;;;;;;;11.50;4.70;;;;;;;18.58;87.98;99800.97;431507;1271;128433;-61
2022/08/25 00:26:31;;;;;;;6.10;3.50;;;;;;;18.62;87.57;99812.34;431055;1271;143461;-60
2022/08/25 00:36:37;;;;;;;10.00;2.80;;;;;;;18.63;87.13;99804.98;430916;1271;142228;-61
2022/08/25 00:46:45;;;;;;;8.10;3.10;;;;;;;18.66;86.82;99777.23;430769;1271;142893;-61
2022/08/25 00:56:52;;;;;;;8.30;3.20;;;;;;;18.66;86.64;99775.97;430998;1270;195814;-60
2022/08/25 01:06:59;;;;;;;8.90;3.00;;;;;;;18.70;86.20;99779.38;431449;1271;148787;-60
2022/08/25 01:17:06;;;;;;;10.80;3.00;;;;;;;18.78;85.71;99772.21;430073;1271;141622;-62
2022/08/25 01:27:11;;;;;;;7.50;3.50;;;;;;;18.80;85.91;99774.06;431137;1271;142905;-60
2022/08/25 01:37:19;;;;;;;4.70;2.80;;;;;;;18.75;86.63;99779.03;430800;1271;146526;-62
2022/08/25 01:47:25;;;;;;;7.50;3.30;;;;;;;18.64;87.30;99776.30;430823;1271;146500;-62
2022/08/25 01:57:32;;;;;;;8.30;4.00;;;;;;;18.61;87.91;99789.89;430915;1271;148501;-60
2022/08/25 02:07:38;;;;;;;7.20;4.40;;;;;;;18.65;88.35;99797.74;430947;1271;142765;-61
2022/08/25 02:17:44;;;;;;;6.50;3.60;;;;;;;18.69;88.71;99791.48;430799;1271;143098;-60
2022/08/25 02:27:50;;;;;;;4.30;3.10;;;;;;;18.70;88.98;99788.02;431110;1271;142761;-61
2022/08/25 02:37:55;;;;;;;6.00;3.30;;;;;;;18.66;89.31;99782.52;430238;1271;142432;-61
2022/08/25 02:48:02;;;;;;;5.10;3.40;;;;;;;18.64;89.58;99776.55;430932;1271;142067;-62
2022/08/25 02:58:09;;;;;;;7.10;4.30;;;;;;;18.62;89.79;99771.75;430694;1271;143368;-60
2022/08/25 03:08:15;;;;;;;5.80;3.10;;;;;;;18.61;90.22;99773.44;429938;1271;143728;-63
2022/08/25 03:18:22;;;;;;;6.80;3.90;;;;;;;18.62;90.56;99780.37;430767;1271;142371;-62
2022/08/25 03:28:30;;;;;;;5.10;3.40;;;;;;;18.64;90.90;99781.15;430594;1272;142008;-63
2022/08/25 03:38:37;;;;;;;11.30;4.30;;;;;;;18.62;91.09;99789.23;430350;1271;145987;-63
2022/08/25 03:48:43;;;;;;;9.50;4.20;;;;;;;18.65;90.94;99789.41;431358;1271;146670;-61
2022/08/25 03:58:49;;;;;;;12.10;4.80;;;;;;;18.65;90.69;99789.71;430283;1271;145575;-62
2022/08/25 04:08:54;;;;;;;9.70;4.60;;;;;;;18.66;90.76;99786.33;430712;1271;146057;-61
2022/08/25 04:19:04;;;;;;;12.70;4.70;;;;;;;18.66;90.75;99787.69;430735;1271;150073;-60
2022/08/25 04:29:12;;;;;;;9.00;5.30;;;;;;;18.74;90.65;99783.41;430569;1271;143532;-62
2022/08/25 04:39:19;;;;;;;8.50;4.80;;;;;;;18.84;90.43;99782.03;431309;1271;141767;-61
2022/08/25 04:49:25;;;;;;;11.10;5.60;;;;;;;18.87;90.31;99784.63;431576;1271;142451;-60
2022/08/25 04:59:30;;;;;;;8.60;5.80;;;;;;;18.96;90.24;99779.17;430673;1271;143140;-60
2022/08/25 05:09:36;;;;;;;13.50;6.50;;;;;;;19.20;90.09;99778.30;431390;1271;142408;-64
2022/08/25 05:19:42;;;;;;;8.80;5.20;;;;;;;19.50;89.30;99770.63;430806;1271;142464;-62
2022/08/25 05:29:49;;;;;;;15.90;5.20;;;;;;;19.78;88.50;99765.41;431181;1271;215407;-61
2022/08/25 05:39:54;;;;;;;10.50;3.90;;;;;;;20.37;87.72;99759.11;431920;1271;142562;-62
2022/08/25 05:50:01;;;;;;;9.80;5.00;;;;;;;21.66;85.74;99765.77;430580;1273;142243;-61
2022/08/25 06:00:09;;;;;;;10.20;3.80;;;;;;;24.21;81.41;99775.92;431015;1271;141840;-61
2022/08/25 06:10:16;;;;;;;8.00;4.30;;;;;;;25.88;75.82;99779.06;431663;1271;143589;-59
2022/08/25 06:20:25;;;;;;;10.50;3.00;;;;;;;25.44;72.78;99780.83;431463;1269;142160;-61
2022/08/25 06:30:30;;;;;;;8.40;2.60;;;;;;;25.78;72.16;99784.69;431124;1271;145132;-61
2022/08/25 06:40:36;;;;;;;12.80;3.80;;;;;;;27.67;68.13;99777.64;432149;1271;144224;-61
2022/08/25 06:50:43;;;;;;;9.50;3.00;;;;;;;28.63;66.14;99781.56;430864;1271;141420;-61
2022/08/25 07:00:49;;;;;;;7.40;2.90;;;;;;;30.84;61.28;99777.54;434545;1271;141772;-59
2022/08/25 07:10:55;;;;;;;9.10;3.20;;;;;;;32.70;58.18;99785.85;435952;1271;142482;-61
2022/08/25 07:21:03;;;;;;;12.20;3.00;;;;;;;37.23;51.98;99789.00;442986;1271;141951;-61
2022/08/25 07:31:13;;;;;;;9.40;5.00;;;;;;;40.25;45.68;99781.84;432297;1271;141718;-60
2022/08/25 07:41:19;;;;;;;8.30;3.10;;;;;;;41.28;41.57;99777.59;432948;1271;141996;-61
2022/08/25 07:51:25;;;;;;;12.70;3.90;;;;;;;42.50;39.05;99782.75;432709;1271;141600;-61
2022/08/25 08:01:36;;;;;;;13.00;3.90;;;;;;;42.07;36.87;99781.29;431375;1271;142195;-61
2022/08/25 08:11:45;;;;;;;9.60;4.90;;;;;;;43.55;35.01;99782.72;432486;1271;143765;-61
2022/08/25 08:21:59;;;;;;;13.70;4.80;;;;;;;42.57;34.54;99777.08;431663;1271;141376;-61
2022/08/25 08:32:09;;;;;;;10.40;3.40;;;;;;;39.41;35.81;99781.77;432671;1271;142429;-61
2022/08/25 08:42:33;;;;;;;10.80;4.10;;;;;;;35.11;39.34;99777.48;431751;1271;140585;-61
2022/08/25 08:52:49;;;;;;;9.40;3.70;;;;;;;32.97;42.82;99778.39;432674;1271;141998;-61
2022/08/25 09:03:03;;;;;;;16.50;5.60;;;;;;;32.34;44.57;99774.20;431458;1271;141537;-62
2022/08/25 09:13:18;;;;;;;31.50;6.40;;;;;;;31.56;45.99;99765.87;430750;1271;142832;-60
2022/08/25 09:23:40;;;;;;;18.00;5.60;;;;;;;30.87;47.19;99767.59;431759;1271;144703;-61
2022/08/25 09:33:45;;;;;;;19.10;5.50;;;;;;;30.55;48.70;99765.55;430984;1271;142045;-62
2022/08/25 09:43:56;;;;;;;11.90;5.20;;;;;;;30.23;49.24;99753.42;430939;1271;142936;-63
2022/08/25 09:54:16;;;;;;;14.30;5.20;;;;;;;29.55;50.69;99745.03;431947;1271;142099;-60
2022/08/25 10:04:30;;;;;;;19.50;6.40;;;;;;;29.73;51.41;99734.27;434107;1271;143463;-61
2022/08/25 10:14:39;;;;;;;18.20;5.30;;;;;;;29.98;51.17;99716.35;430628;1272;143422;-61
2022/08/25 10:24:50;;;;;;;13.70;5.30;;;;;;;29.88;51.48;99697.46;433568;1271;144084;-61
2022/08/25 10:34:58;;;;;;;11.80;5.20;;;;;;;29.92;51.30;99692.22;433924;1271;142662;-61
2022/08/25 10:55:49;;;;;;;14.80;5.10;;;;;;;29.66;52.18;99686.02;446838;1271;145285;-63
2022/08/25 11:06:00;;;;;;;17.90;5.30;;;;;;;29.46;52.71;99677.94;447637;1269;199497;-61
2022/08/25 11:16:11;;;;;;;16.70;5.20;;;;;;;28.87;53.17;99677.23;447265;1272;143170;-62
2022/08/25 11:26:33;;;;;;;15.80;6.90;;;;;;;28.50;53.92;99663.79;446884;1270;144372;-61
2022/08/25 11:36:49;;;;;;;21.70;5.30;;;;;;;28.33;54.52;99653.02;447595;1271;142476;-61
2022/08/25 11:47:11;;;;;;;13.70;4.90;;;;;;;28.38;54.88;99646.49;446860;1271;142193;-61
2022/08/25 11:57:27;;;;;;;14.90;4.80;;;;;;;28.65;54.89;99634.52;447661;1271;143150;-61
2022/08/25 12:18:45;;;;;;;14.80;5.80;;;;;;;28.55;54.10;99643.54;443046;1271;142652;-61
2022/08/25 12:29:04;;;;;;;16.70;6.20;;;;;;;28.48;54.22;99629.73;430292;1271;142086;-61
2022/08/25 12:39:20;;;;;;;14.40;5.70;;;;;;;28.40;54.49;99628.23;443236;1270;143276;-61
2022/08/25 12:49:34;;;;;;;11.20;5.20;;;;;;;28.38;54.62;99619.29;447611;1271;141898;-61
2022/08/25 12:59:42;;;;;;;12.30;4.70;;;;;;;28.36;54.39;99618.91;446769;1271;143194;-60
2022/08/25 13:10:23;;;;;;;14.00;4.90;;;;;;;28.37;53.09;99619.87;443063;1271;142049;-62
2022/08/25 13:20:29;;;;;;;11.70;5.30;;;;;;;28.51;53.08;99613.65;429758;1271;143876;-61
2022/08/25 13:30:37;;;;;;;12.00;4.70;;;;;;;28.55;52.55;99613.25;431270;1271;142090;-61
2022/08/25 13:40:44;;;;;;;17.90;4.70;;;;;;;28.61;51.98;99602.33;430048;1271;162703;-60
2022/08/25 13:50:51;;;;;;;10.10;5.40;;;;;;;28.72;52.04;99593.48;430739;1272;144321;-62
2022/08/25 14:01:08;;;;;;;12.60;5.30;;;;;;;28.74;52.46;99587.54;431182;1271;142729;-60
2022/08/25 14:11:34;;;;;;;;;;;;;;;28.70;52.42;99583.42;431476;1271;142431;-62
2022/08/25 14:21:40;;;;;;;12.20;5.90;;;;;;;28.78;52.66;99576.63;431855;1271;127653;-60
2022/08/25 14:31:48;;;;;;;13.20;5.30;;;;;;;28.80;52.43;99567.20;430489;1271;142529;-63
2022/08/25 14:41:54;;;;;;;11.50;4.80;;;;;;;28.72;52.15;99554.39;431185;1272;142872;-62
2022/08/25 14:52:06;;;;;;;18.70;5.70;;;;;;;28.61;49.56;99554.97;431545;1271;141538;-61
2022/08/25 15:02:17;;;;;;;10.00;4.20;;;;;;;28.70;48.71;99541.52;438764;1271;141660;-62
2022/08/25 15:12:24;;;;;;;7.30;4.60;;;;;;;28.80;48.37;99534.02;431617;1270;142297;-61
2022/08/25 15:22:50;;;;;;;9.00;4.30;;;;;;;28.86;48.35;99536.98;434633;1270;142328;-61
2022/08/25 15:32:56;;;;;;;9.50;4.00;;;;;;;28.84;47.79;99530.50;431504;1271;142141;-62
2022/08/25 15:43:02;;;;;;;11.30;4.60;;;;;;;28.77;47.64;99523.05;431752;1271;142607;-61
2022/08/25 15:53:08;;;;;;;7.40;4.00;;;;;;;28.74;47.06;99523.57;430480;1271;142272;-60
2022/08/25 16:03:15;;;;;;;12.00;3.70;;;;;;;28.65;46.63;99514.66;431418;1271;140896;-63
2022/08/25 16:13:21;;;;;;;12.60;4.60;;;;;;;28.52;46.80;99507.12;431091;1271;142083;-61
2022/08/25 16:23:27;;;;;;;7.60;3.40;;;;;;;28.39;47.13;99500.10;430717;1271;141687;-62
2022/08/25 16:33:33;;;;;;;5.90;3.60;;;;;;;28.24;47.45;99487.29;431919;1271;142450;-63
2022/08/25 16:43:42;;;;;;;12.60;4.80;;;;;;;28.09;47.71;99490.95;431406;1271;141936;-62
2022/08/25 17:04:13;;;;;;;14.40;4.40;;;;;;;27.66;48.57;99493.00;431510;1271;142741;-62
2022/08/25 17:14:20;;;;;;;14.60;5.00;;;;;;;27.36;49.33;99499.36;430703;1271;143897;-62
2022/08/25 17:24:26;;;;;;;13.10;5.20;;;;;;;27.05;49.99;99507.00;431080;1271;142534;-62
2022/08/25 17:34:36;;;;;;;6.30;3.60;;;;;;;26.68;50.67;99508.72;431686;1271;142583;-62
2022/08/25 17:44:42;;;;;;;12.70;4.80;;;;;;;26.28;51.61;99506.02;430312;1271;142024;-61
2022/08/25 17:54:50;;;;;;;8.70;3.80;;;;;;;25.85;52.56;99511.36;430674;1271;144623;-61
2022/08/25 18:04:57;;;;;;;9.90;4.70;;;;;;;25.45;53.23;99520.83;430232;1271;142335;-62
2022/08/25 18:15:04;;;;;;;6.90;3.60;;;;;;;25.05;53.74;99523.70;430319;1271;141393;-61
2022/08/25 18:25:14;;;;;;;9.30;4.60;;;;;;;24.74;53.94;99519.96;435310;1269;142895;-63
2022/08/25 18:35:21;;;;;;;8.00;4.10;;;;;;;24.55;54.07;99519.45;441218;1271;1310520;-63
2022/08/25 18:45:39;;;;;;;6.30;4.40;;;;;;;24.37;53.99;99524.02;430919;1272;142731;-62
2022/08/25 18:55:45;;;;;;;12.40;4.20;;;;;;;24.20;53.91;99519.13;430541;1271;141860;-62
2022/08/25 19:05:52;;;;;;;6.80;4.30;;;;;;;24.06;53.78;99518.89;431359;1271;141279;-63
2022/08/25 19:16:10;;;;;;;10.30;5.10;;;;;;;23.93;53.71;99530.89;431751;1271;141404;-64
2022/08/25 19:26:16;;;;;;;11.70;4.60;;;;;;;23.84;53.60;99526.29;430684;1271;142504;-65
2022/08/25 19:36:27;;;;;;;8.70;4.70;;;;;;;23.77;53.36;99523.96;431507;1270;143334;-64
2022/08/25 19:46:35;;;;;;;6.20;4.20;;;;;;;23.66;52.87;99527.25;431691;1271;142975;-62
2022/08/25 19:56:42;;;;;;;12.80;4.30;;;;;;;23.58;52.99;99527.46;431049;1271;142247;-62
2022/08/25 20:07:00;;;;;;;5.30;3.80;;;;;;;23.37;53.41;99526.75;432297;1271;196691;-63
2022/08/25 20:17:06;;;;;;;8.30;4.10;;;;;;;23.15;53.77;99531.39;431620;1271;142635;-62
2022/08/25 20:27:33;;;;;;;7.80;3.90;;;;;;;22.97;53.66;99527.23;431848;1271;142328;-62
2022/08/25 20:37:39;;;;;;;5.00;3.80;;;;;;;22.85;53.52;99532.80;432190;1271;142485;-61
2022/08/25 20:47:45;;;;;;;3.90;3.40;;;;;;;22.77;53.33;99531.90;432021;1272;200293;-60
2022/08/25 20:57:51;;;;;;;7.10;4.10;;;;;;;22.68;53.03;99527.55;432203;1271;152018;-61
2022/08/25 21:07:57;;;;;;;11.00;4.00;;;;;;;22.50;53.15;99529.14;431700;1271;142496;-62
2022/08/25 21:18:03;;;;;;;5.70;4.50;;;;;;;22.26;53.63;99531.31;433035;1271;142086;-63
2022/08/25 21:28:10;;;;;;;7.40;4.70;;;;;;;22.05;54.12;99528.26;432926;1271;144207;-62
2022/08/25 21:38:16;;;;;;;6.70;3.70;;;;;;;21.93;54.14;99534.82;431722;1271;141619;-63
2022/08/25 21:48:22;;;;;;;6.80;3.90;;;;;;;21.84;54.12;99529.98;431881;1271;145539;-64
2022/08/25 21:58:30;;;;;;;7.20;3.50;;;;;;;21.67;54.11;99529.33;431921;1271;141850;-64
2022/08/25 22:08:38;;;;;;;7.60;3.30;;;;;;;21.55;54.30;99521.70;431805;1271;145212;-61
2022/08/25 22:18:44;;;;;;;6.70;3.90;;;;;;;21.43;54.56;99519.55;432955;1271;153715;-63
2022/08/25 22:28:51;;;;;;;7.10;3.20;;;;;;;21.26;54.99;99515.67;432391;1271;142159;-64
2022/08/25 22:38:58;;;;;;;7.30;3.80;;;;;;;21.11;54.77;99513.70;433084;1271;145453;-62
2022/08/25 22:49:04;;;;;;;9.40;4.30;;;;;;;21.15;54.38;99501.91;432704;1271;145504;-63
2022/08/25 22:59:14;;;;;;;5.50;3.70;;;;;;;21.12;54.21;99494.38;432149;1271;140356;-62
2022/08/25 23:09:20;;;;;;;8.70;4.80;;;;;;;21.03;54.15;99483.27;433122;1271;141858;-59
2022/08/25 23:19:26;;;;;;;9.40;3.00;;;;;;;20.90;54.21;99479.00;432972;1271;145569;-61
2022/08/25 23:29:34;;;;;;;4.80;3.10;;;;;;;20.78;54.21;99474.88;431621;1271;142808;-61
2022/08/25 23:39:44;;;;;;;5.20;3.00;;;;;;;20.62;54.38;99468.48;431755;1271;141232;-62
2022/08/25 23:49:50;;;;;;;11.20;3.90;;;;;;;20.49;54.47;99463.81;431522;1271;141942;-62
2022/08/25 23:59:56;;;;;;;6.30;3.30;;;;;;;20.36;54.58;99459.34;431627;1271;142299;-62
